createdAt,value
2023-05-04T00:02:26.425Z,10.30
2023-05-04T00:04:53.929Z,10.30
2023-05-04T00:07:21.108Z,10.30
2023-05-04T00:09:47.935Z,10.20
2023-05-04T00:12:14.923Z,10.20
2023-05-04T00:14:41.889Z,10.20
2023-05-04T00:17:12.720Z,10.10
2023-05-04T00:19:42.090Z,10.10
2023-05-04T00:22:09.310Z,10.10
2023-05-04T00:24:36.371Z,10.00
2023-05-04T00:27:03.917Z,10.10
2023-05-04T00:29:31.144Z,10.00
2023-05-04T00:31:58.148Z,10.00
2023-05-04T00:34:25.075Z,10.00
2023-05-04T00:36:51.805Z,10.00
2023-05-04T00:39:18.564Z,10.00
2023-05-04T00:41:45.914Z,9.90
2023-05-04T00:44:13.023Z,9.90
2023-05-04T00:46:40.522Z,9.90
2023-05-04T00:49:07.994Z,9.90
2023-05-04T00:51:35.962Z,9.90
2023-05-04T00:54:05.691Z,9.90
2023-05-04T00:56:33.748Z,9.90
2023-05-04T00:59:00.571Z,9.90
2023-05-04T01:01:27.371Z,9.90
2023-05-04T01:03:55.912Z,9.80
2023-05-04T01:06:39.228Z,9.80
2023-05-04T01:09:16.451Z,9.80
2023-05-04T01:12:14.532Z,9.80
2023-05-04T01:14:45.830Z,9.80
2023-05-04T01:17:12.825Z,9.80
2023-05-04T01:19:42.658Z,9.70
2023-05-04T01:22:09.640Z,9.70
2023-05-04T01:24:36.646Z,9.70
2023-05-04T01:27:05.476Z,9.70
2023-05-04T01:29:38.924Z,9.70
2023-05-04T01:32:06.659Z,9.70
2023-05-04T01:34:35.479Z,9.60
2023-05-04T01:37:02.496Z,9.60
2023-05-04T01:39:30.224Z,9.60
2023-05-04T01:41:57.224Z,9.50
2023-05-04T01:44:24.258Z,9.50
2023-05-04T01:46:51.030Z,9.50
2023-05-04T01:49:17.800Z,9.40
2023-05-04T01:51:46.955Z,9.40
2023-05-04T01:54:13.819Z,9.40
2023-05-04T01:56:41.468Z,9.40
2023-05-04T01:59:08.389Z,9.40
2023-05-04T02:01:35.138Z,9.30
2023-05-04T02:04:02.180Z,9.30
2023-05-04T02:06:29.132Z,9.30
2023-05-04T02:08:56.099Z,9.30
2023-05-04T02:11:22.973Z,9.30
2023-05-04T02:13:49.729Z,9.20
2023-05-04T02:16:17.119Z,9.20
2023-05-04T02:18:43.925Z,9.20
2023-05-04T02:21:10.719Z,9.20
2023-05-04T02:23:37.412Z,9.10
2023-05-04T02:26:04.145Z,9.10
2023-05-04T02:28:31.042Z,9.10
2023-05-04T02:30:57.796Z,9.10
2023-05-04T02:33:24.567Z,9.00
2023-05-04T02:35:51.914Z,9.00
2023-05-04T02:38:18.729Z,9.00
2023-05-04T02:40:45.523Z,9.00
2023-05-04T02:43:12.352Z,8.90
2023-05-04T02:45:39.143Z,8.90
2023-05-04T02:48:06.138Z,8.90
2023-05-04T02:50:33.975Z,8.80
2023-05-04T02:53:00.807Z,8.80
2023-05-04T02:55:27.646Z,8.80
2023-05-04T02:57:54.404Z,8.70
2023-05-04T03:00:21.628Z,8.70
2023-05-04T03:02:48.458Z,8.70
2023-05-04T03:05:15.725Z,8.70
2023-05-04T03:07:42.475Z,8.60
2023-05-04T03:10:09.845Z,8.60
2023-05-04T03:12:36.739Z,8.60
2023-05-04T03:15:03.706Z,8.50
2023-05-04T03:17:30.437Z,8.50
2023-05-04T03:19:57.241Z,8.50
2023-05-04T03:22:24.083Z,8.50
2023-05-04T03:24:51.398Z,8.40
2023-05-04T03:27:18.142Z,8.40
2023-05-04T03:29:44.970Z,8.40
2023-05-04T03:32:13.503Z,8.40
2023-05-04T03:34:40.607Z,8.30
2023-05-04T03:37:08.189Z,8.30
2023-05-04T03:39:34.983Z,8.30
2023-05-04T03:42:02.655Z,8.30
2023-05-04T03:44:29.511Z,8.20
2023-05-04T03:46:56.442Z,8.20
2023-05-04T03:49:23.177Z,8.20
2023-05-04T03:51:50.026Z,8.20
2023-05-04T03:54:16.990Z,8.10
2023-05-04T03:56:43.694Z,8.10
2023-05-04T03:59:10.462Z,8.10
2023-05-04T04:01:37.310Z,8.10
2023-05-04T04:04:04.446Z,8.10
2023-05-04T04:06:31.980Z,8.10
2023-05-04T04:08:58.742Z,8.10
2023-05-04T04:11:26.409Z,8.10
2023-05-04T04:13:53.426Z,8.10
2023-05-04T04:16:21.411Z,8.00
2023-05-04T04:18:48.769Z,8.00
2023-05-04T04:21:15.618Z,8.00
2023-05-04T04:23:42.454Z,8.00
2023-05-04T04:26:09.407Z,8.00
2023-05-04T04:28:36.200Z,8.00
2023-05-04T04:31:03.831Z,8.00
2023-05-04T04:33:30.889Z,8.00
2023-05-04T04:35:57.689Z,8.00
2023-05-04T04:38:24.979Z,8.10
2023-05-04T04:40:52.107Z,8.10
2023-05-04T04:43:18.832Z,8.10
2023-05-04T04:45:46.846Z,8.10
2023-05-04T04:48:14.208Z,8.10
2023-05-04T04:50:41.101Z,8.10
2023-05-04T04:53:07.862Z,8.20
2023-05-04T04:55:34.910Z,8.20
2023-05-04T04:58:01.768Z,8.30
2023-05-04T05:00:30.807Z,8.30
2023-05-04T05:02:57.680Z,8.30
2023-05-04T05:05:24.515Z,8.30
2023-05-04T05:07:51.475Z,8.40
2023-05-04T05:10:18.584Z,8.40
2023-05-04T05:12:45.642Z,8.40
2023-05-04T05:15:12.855Z,8.50
2023-05-04T05:17:39.828Z,8.50
2023-05-04T05:20:11.287Z,8.50
2023-05-04T05:22:38.871Z,8.60
2023-05-04T05:25:07.637Z,8.70
2023-05-04T05:27:35.423Z,8.70
2023-05-04T05:30:03.574Z,8.70
2023-05-04T05:32:30.643Z,8.80
2023-05-04T05:34:57.721Z,8.90
2023-05-04T05:37:25.097Z,8.90
2023-05-04T05:39:51.889Z,9.00
2023-05-04T05:42:19.105Z,9.10
2023-05-04T05:44:45.886Z,9.20
2023-05-04T05:47:12.783Z,9.20
2023-05-04T05:49:39.469Z,9.30
2023-05-04T05:52:06.300Z,9.40
2023-05-04T05:54:34.447Z,9.50
2023-05-04T05:57:01.855Z,9.70
2023-05-04T05:59:28.798Z,9.80
2023-05-04T06:01:55.586Z,9.90
2023-05-04T06:04:22.418Z,10.00
2023-05-04T06:06:49.244Z,10.10
2023-05-04T06:09:15.982Z,10.20
2023-05-04T06:11:42.885Z,10.30
2023-05-04T06:14:09.690Z,10.40
2023-05-04T06:16:36.453Z,10.50
2023-05-04T06:19:03.414Z,10.60
2023-05-04T06:21:30.232Z,10.70
2023-05-04T06:23:56.993Z,10.80
2023-05-04T06:26:23.886Z,10.90
2023-05-04T06:28:50.566Z,11.00
2023-05-04T06:31:18.410Z,11.10
2023-05-04T06:33:45.191Z,11.20
2023-05-04T06:36:13.048Z,11.30
2023-05-04T06:38:39.917Z,11.40
2023-05-04T06:41:06.829Z,11.50
2023-05-04T06:43:36.506Z,11.60
2023-05-04T06:46:03.883Z,11.80
2023-05-04T06:48:31.857Z,11.90
2023-05-04T06:51:00.746Z,12.00
2023-05-04T06:53:32.926Z,12.10
2023-05-04T06:56:02.350Z,12.30
2023-05-04T06:58:29.136Z,12.40
2023-05-04T07:00:55.991Z,12.60
2023-05-04T07:03:22.810Z,12.80
2023-05-04T07:05:51.088Z,13.10
2023-05-04T07:08:18.095Z,13.50
2023-05-04T07:10:45.094Z,14.00
2023-05-04T07:13:12.143Z,14.40
2023-05-04T07:15:39.453Z,14.90
2023-05-04T07:18:06.216Z,15.30
2023-05-04T07:20:33.027Z,15.70
2023-05-04T07:22:59.817Z,16.10
2023-05-04T07:25:27.515Z,16.40
2023-05-04T07:27:54.417Z,16.80
2023-05-04T07:30:22.029Z,17.20
2023-05-04T07:32:51.620Z,17.50
2023-05-04T07:35:18.765Z,17.80
2023-05-04T07:37:46.482Z,18.10
2023-05-04T07:40:14.776Z,18.30
2023-05-04T07:42:42.119Z,18.60
2023-05-04T07:45:09.876Z,18.90
2023-05-04T07:47:37.402Z,19.10
2023-05-04T07:50:06.297Z,19.30
2023-05-04T07:52:33.621Z,19.50
2023-05-04T07:55:00.764Z,19.70
2023-05-04T07:57:31.436Z,19.80
2023-05-04T08:00:01.778Z,19.80
2023-05-04T08:02:28.579Z,19.70
2023-05-04T08:04:58.037Z,19.70
2023-05-04T08:07:27.748Z,19.70
2023-05-04T08:09:55.865Z,19.80
2023-05-04T08:12:24.071Z,19.80
2023-05-04T08:14:51.599Z,19.90
2023-05-04T08:17:21.242Z,19.90
2023-05-04T08:19:47.976Z,19.90
2023-05-04T08:22:14.786Z,20.00
2023-05-04T08:24:41.958Z,20.00
2023-05-04T08:27:09.280Z,20.10
2023-05-04T08:29:37.457Z,20.10
2023-05-04T08:32:04.835Z,20.20
2023-05-04T08:34:31.658Z,20.20
2023-05-04T08:36:58.628Z,20.30
2023-05-04T08:39:25.419Z,20.60
2023-05-04T08:41:52.131Z,20.80
2023-05-04T08:44:19.196Z,21.00
2023-05-04T08:46:52.456Z,21.10
2023-05-04T08:49:20.697Z,21.40
2023-05-04T08:51:50.429Z,21.50
2023-05-04T08:54:18.566Z,21.70
2023-05-04T08:56:47.296Z,21.80
2023-05-04T08:59:21.988Z,22.00
2023-05-04T09:01:54.591Z,22.20
2023-05-04T09:04:22.718Z,22.40
2023-05-04T09:06:49.923Z,22.50
2023-05-04T09:09:17.004Z,22.60
2023-05-04T09:11:44.402Z,22.70
2023-05-04T09:14:11.319Z,22.90
2023-05-04T09:16:38.748Z,23.00
2023-05-04T09:19:17.764Z,23.20
2023-05-04T09:21:44.725Z,23.30
2023-05-04T09:24:12.716Z,23.50
2023-05-04T09:26:39.594Z,23.60
2023-05-04T09:29:16.157Z,23.70
2023-05-04T09:31:48.013Z,23.70
2023-05-04T09:34:15.223Z,23.60
2023-05-04T09:36:42.298Z,23.50
2023-05-04T09:39:15.009Z,23.60
2023-05-04T09:41:43.419Z,23.70
2023-05-04T09:44:25.942Z,23.90
2023-05-04T09:46:55.896Z,24.00
2023-05-04T09:49:36.933Z,24.20
2023-05-04T09:52:05.983Z,24.40
2023-05-04T09:54:39.019Z,24.70
2023-05-04T09:57:15.710Z,24.90
2023-05-04T09:59:43.482Z,25.20
2023-05-04T10:02:22.630Z,25.40
2023-05-04T10:04:51.817Z,25.60
2023-05-04T10:07:19.438Z,25.80
2023-05-04T10:09:48.006Z,25.80
2023-05-04T10:12:14.927Z,25.80
2023-05-04T10:14:42.988Z,25.90
2023-05-04T10:17:47.792Z,26.00
2023-05-04T10:20:25.802Z,26.10
2023-05-04T10:22:55.629Z,26.30
2023-05-04T10:25:43.900Z,26.30
2023-05-04T10:28:27.270Z,26.30
2023-05-04T10:30:58.390Z,26.40
2023-05-04T10:33:39.324Z,26.60
2023-05-04T10:36:07.102Z,26.90
2023-05-04T10:38:34.367Z,27.10
2023-05-04T10:41:01.601Z,27.30
2023-05-04T10:43:32.525Z,27.30
2023-05-04T10:46:01.302Z,27.40
2023-05-04T10:48:35.697Z,27.50
2023-05-04T10:51:02.622Z,27.70
2023-05-04T10:53:35.571Z,27.80
2023-05-04T10:56:02.828Z,27.60
2023-05-04T10:58:30.063Z,27.60
2023-05-04T11:00:57.066Z,27.70
2023-05-04T11:03:25.087Z,27.90
2023-05-04T11:05:54.816Z,27.80
2023-05-04T11:08:26.121Z,27.90
2023-05-04T11:11:06.895Z,28.10
2023-05-04T11:13:34.891Z,28.30
2023-05-04T11:16:02.118Z,28.40
2023-05-04T11:18:31.072Z,28.40
2023-05-04T11:20:58.524Z,28.40
2023-05-04T11:23:26.152Z,28.40
2023-05-04T11:25:53.622Z,28.50
2023-05-04T11:28:31.231Z,28.50
2023-05-04T11:30:58.659Z,28.50
2023-05-04T11:33:25.602Z,28.50
2023-05-04T11:36:02.346Z,28.60
2023-05-04T11:38:29.713Z,28.70
2023-05-04T11:40:56.557Z,28.90
2023-05-04T11:43:23.734Z,29.00
2023-05-04T11:45:51.962Z,29.00
2023-05-04T11:48:19.018Z,29.00
2023-05-04T11:50:47.546Z,28.80
2023-05-04T11:53:21.525Z,28.70
2023-05-04T11:55:48.548Z,28.60
2023-05-04T11:58:15.791Z,28.40
2023-05-04T12:00:43.873Z,28.40
2023-05-04T12:03:48.011Z,28.50
2023-05-04T12:06:18.647Z,28.60
2023-05-04T12:08:45.480Z,28.50
2023-05-04T12:11:25.661Z,28.40
2023-05-04T12:14:06.995Z,28.10
2023-05-04T12:16:34.439Z,27.50
2023-05-04T12:19:05.248Z,27.20
2023-05-04T12:21:33.222Z,26.90
2023-05-04T12:24:00.543Z,26.70
2023-05-04T12:26:27.813Z,26.60
2023-05-04T12:28:54.769Z,26.40
2023-05-04T12:31:23.707Z,26.50
2023-05-04T12:33:51.986Z,26.70
2023-05-04T12:36:18.967Z,27.00
2023-05-04T12:38:48.228Z,27.30
2023-05-04T12:41:15.176Z,27.40
2023-05-04T12:43:43.046Z,27.30
2023-05-04T12:46:10.051Z,27.30
2023-05-04T12:48:39.676Z,27.50
2023-05-04T12:51:06.545Z,27.50
2023-05-04T12:53:33.376Z,27.60
2023-05-04T12:56:01.586Z,27.60
2023-05-04T12:58:28.535Z,27.60
2023-05-04T13:00:56.606Z,27.90
2023-05-04T13:03:23.630Z,28.00
2023-05-04T13:05:50.607Z,28.00
2023-05-04T13:08:19.636Z,28.10
2023-05-04T13:10:47.248Z,28.20
2023-05-04T13:13:17.344Z,28.40
2023-05-04T13:15:45.208Z,28.40
2023-05-04T13:18:14.968Z,28.50
2023-05-04T13:20:42.107Z,28.60
2023-05-04T13:23:08.912Z,28.70
2023-05-04T13:25:35.644Z,28.60
2023-05-04T13:28:02.714Z,28.60
2023-05-04T13:30:30.095Z,28.70
2023-05-04T13:32:57.042Z,28.60
2023-05-04T13:35:24.108Z,28.70
2023-05-04T13:37:51.505Z,28.70
2023-05-04T13:40:18.437Z,28.60
2023-05-04T13:42:45.269Z,28.50
2023-05-04T13:45:12.213Z,28.40
2023-05-04T13:47:40.389Z,28.20
2023-05-04T13:50:08.090Z,28.10
2023-05-04T13:52:35.241Z,28.00
2023-05-04T13:55:02.607Z,28.00
2023-05-04T13:57:29.811Z,27.90
2023-05-04T14:00:05.619Z,27.80
2023-05-04T14:02:33.974Z,27.80
2023-05-04T14:05:01.417Z,27.90
2023-05-04T14:07:28.258Z,27.90
2023-05-04T14:09:58.524Z,27.90
2023-05-04T14:12:25.370Z,27.90
2023-05-04T14:14:52.093Z,27.60
2023-05-04T14:17:18.843Z,27.50
2023-05-04T14:19:45.871Z,27.50
2023-05-04T14:22:12.660Z,27.60
2023-05-04T14:24:39.979Z,27.80
2023-05-04T14:27:06.725Z,27.90
2023-05-04T14:29:34.350Z,28.00
2023-05-04T14:32:01.403Z,27.90
2023-05-04T14:34:31.487Z,27.80
2023-05-04T14:36:58.339Z,27.60
2023-05-04T14:39:25.110Z,27.60
2023-05-04T14:41:55.217Z,27.70
2023-05-04T14:44:26.249Z,28.00
2023-05-04T14:46:53.214Z,28.20
2023-05-04T14:49:35.033Z,28.30
2023-05-04T14:52:04.010Z,28.50
2023-05-04T14:54:30.857Z,28.50
2023-05-04T14:56:59.089Z,28.40
2023-05-04T14:59:28.867Z,28.20
2023-05-04T15:01:57.473Z,28.10
2023-05-04T15:04:24.372Z,28.00
2023-05-04T15:06:52.418Z,27.80
2023-05-04T15:09:19.200Z,27.80
2023-05-04T15:11:46.227Z,27.80
2023-05-04T15:14:13.487Z,27.90
2023-05-04T15:16:40.344Z,27.90
2023-05-04T15:19:07.606Z,27.90
2023-05-04T15:21:35.209Z,27.80
2023-05-04T15:24:05.475Z,27.80
2023-05-04T15:26:35.924Z,27.90
2023-05-04T15:29:03.042Z,27.90
2023-05-04T15:31:29.852Z,28.00
2023-05-04T15:33:56.600Z,28.00
2023-05-04T15:36:24.453Z,27.90
2023-05-04T15:38:51.223Z,27.80
2023-05-04T15:41:18.085Z,27.60
2023-05-04T15:43:44.913Z,27.60
2023-05-04T15:46:11.741Z,27.50
2023-05-04T15:48:38.570Z,27.50
2023-05-04T15:51:14.940Z,27.40
2023-05-04T15:53:41.664Z,27.30
2023-05-04T15:56:08.795Z,27.20
2023-05-04T15:58:35.753Z,27.20
2023-05-04T16:01:04.208Z,27.00
2023-05-04T16:03:32.159Z,26.90
2023-05-04T16:05:59.163Z,26.80
2023-05-04T16:08:26.161Z,26.70
2023-05-04T16:10:53.586Z,26.70
2023-05-04T16:13:21.848Z,26.80
2023-05-04T16:15:52.270Z,26.80
2023-05-04T16:18:19.367Z,26.90
2023-05-04T16:20:49.669Z,26.90
2023-05-04T16:23:18.036Z,26.90
2023-05-04T16:25:44.868Z,26.80
2023-05-04T16:28:14.900Z,26.80
2023-05-04T16:30:42.893Z,26.80
2023-05-04T16:33:12.455Z,26.80
2023-05-04T16:35:39.271Z,26.80
2023-05-04T16:38:06.177Z,26.80
2023-05-04T16:40:33.018Z,26.80
2023-05-04T16:43:00.169Z,26.80
2023-05-04T16:45:31.228Z,26.80
2023-05-04T16:47:58.901Z,26.80
2023-05-04T16:50:25.837Z,26.70
2023-05-04T16:52:52.601Z,26.60
2023-05-04T16:55:20.306Z,26.40
2023-05-04T16:57:47.769Z,26.30
2023-05-04T17:00:15.047Z,26.30
2023-05-04T17:02:42.393Z,26.20
2023-05-04T17:05:10.565Z,26.10
2023-05-04T17:07:41.968Z,26.00
2023-05-04T17:10:09.527Z,26.00
2023-05-04T17:12:36.474Z,26.00
2023-05-04T17:15:03.837Z,25.90
2023-05-04T17:17:33.345Z,25.80
2023-05-04T17:20:00.925Z,25.70
2023-05-04T17:22:27.754Z,25.70
2023-05-04T17:24:57.738Z,25.60
2023-05-04T17:27:24.510Z,25.50
2023-05-04T17:29:51.713Z,25.40
2023-05-04T17:32:18.544Z,25.30
2023-05-04T17:34:46.618Z,25.20
2023-05-04T17:37:13.451Z,25.10
2023-05-04T17:39:40.311Z,25.00
2023-05-04T17:42:07.306Z,25.00
2023-05-04T17:44:36.973Z,24.90
2023-05-04T17:47:03.881Z,24.80
2023-05-04T17:49:31.222Z,24.80
2023-05-04T17:51:58.136Z,24.70
2023-05-04T17:54:24.951Z,24.60
2023-05-04T17:56:51.785Z,24.50
2023-05-04T17:59:18.629Z,24.40
2023-05-04T18:01:45.879Z,24.30
2023-05-04T18:04:12.798Z,24.20
2023-05-04T18:06:39.567Z,24.10
2023-05-04T18:09:06.562Z,24.10
2023-05-04T18:11:33.402Z,24.00
2023-05-04T18:14:00.179Z,23.90
2023-05-04T18:16:27.029Z,23.80
2023-05-04T18:18:53.899Z,23.70
2023-05-04T18:21:20.897Z,23.60
2023-05-04T18:23:47.741Z,23.60
2023-05-04T18:26:22.789Z,23.50
2023-05-04T18:28:50.163Z,23.40
2023-05-04T18:31:17.483Z,23.20
2023-05-04T18:33:46.573Z,23.20
2023-05-04T18:36:13.406Z,23.10
2023-05-04T18:38:40.990Z,23.00
2023-05-04T18:41:11.975Z,22.90
2023-05-04T18:43:38.749Z,22.80
2023-05-04T18:46:08.633Z,22.70
2023-05-04T18:48:35.411Z,22.60
2023-05-04T18:51:02.767Z,22.50
2023-05-04T18:53:29.835Z,22.40
2023-05-04T18:56:04.267Z,22.30
2023-05-04T18:58:31.337Z,22.20
2023-05-04T19:00:58.452Z,22.10
2023-05-04T19:03:25.716Z,22.00
2023-05-04T19:05:56.176Z,21.90
2023-05-04T19:08:23.194Z,21.80
2023-05-04T19:10:50.522Z,21.70
2023-05-04T19:13:17.588Z,21.70
2023-05-04T19:15:44.654Z,21.60
2023-05-04T19:18:12.040Z,21.50
2023-05-04T19:20:42.609Z,21.40
2023-05-04T19:23:10.396Z,21.20
2023-05-04T19:25:37.382Z,21.10
2023-05-04T19:28:08.700Z,21.00
2023-05-04T19:30:39.595Z,20.80
2023-05-04T19:33:08.329Z,20.80
2023-05-04T19:35:35.740Z,20.70
2023-05-04T19:38:02.768Z,20.60
2023-05-04T19:40:29.689Z,20.50
2023-05-04T19:42:56.578Z,20.40
2023-05-04T19:45:23.869Z,20.30
2023-05-04T19:47:51.053Z,20.20
2023-05-04T19:50:17.929Z,20.20
2023-05-04T19:52:44.895Z,20.10
2023-05-04T19:55:11.761Z,20.00
2023-05-04T19:57:38.616Z,20.00
2023-05-04T20:00:06.530Z,19.90
2023-05-04T20:02:33.421Z,19.80
2023-05-04T20:05:00.395Z,19.80
2023-05-04T20:07:27.271Z,19.70
2023-05-04T20:09:54.377Z,19.70
2023-05-04T20:12:21.553Z,19.60
2023-05-04T20:14:48.342Z,19.60
2023-05-04T20:17:15.654Z,19.50
2023-05-04T20:19:43.070Z,19.50
2023-05-04T20:22:10.961Z,19.40
2023-05-04T20:24:37.688Z,19.30
2023-05-04T20:27:04.762Z,19.30
2023-05-04T20:29:32.218Z,19.20
2023-05-04T20:32:01.383Z,19.20
2023-05-04T20:34:28.516Z,19.10
2023-05-04T20:36:55.652Z,19.10
2023-05-04T20:39:22.744Z,19.00
2023-05-04T20:41:49.843Z,19.00
2023-05-04T20:44:17.487Z,19.00
2023-05-04T20:46:45.216Z,19.00
2023-05-04T20:49:12.603Z,18.90
2023-05-04T20:51:39.610Z,18.90
2023-05-04T20:54:06.384Z,18.80
2023-05-04T20:56:33.277Z,18.80
2023-05-04T20:59:00.116Z,18.80
2023-05-04T21:01:29.947Z,18.70
2023-05-04T21:03:56.961Z,18.60
2023-05-04T21:06:24.641Z,18.60
2023-05-04T21:08:51.633Z,18.50
2023-05-04T21:11:18.696Z,18.40
2023-05-04T21:13:45.458Z,18.40
2023-05-04T21:16:12.487Z,18.30
2023-05-04T21:18:39.318Z,18.30
2023-05-04T21:21:06.389Z,18.20
2023-05-04T21:23:33.360Z,18.20
2023-05-04T21:26:04.090Z,18.10
2023-05-04T21:28:31.895Z,18.00
2023-05-04T21:30:59.028Z,18.00
2023-05-04T21:33:26.069Z,17.90
2023-05-04T21:35:52.914Z,17.90
2023-05-04T21:38:21.882Z,17.90
2023-05-04T21:40:49.216Z,17.90
2023-05-04T21:43:16.145Z,17.90
2023-05-04T21:45:43.022Z,18.00
2023-05-04T21:48:09.981Z,18.00
2023-05-04T21:50:37.154Z,18.00
2023-05-04T21:53:03.940Z,18.00
2023-05-04T21:55:30.694Z,18.00
2023-05-04T21:57:59.822Z,18.00
2023-05-04T22:00:26.877Z,18.00
2023-05-04T22:02:55.070Z,17.90
2023-05-04T22:05:22.657Z,18.00
2023-05-04T22:07:50.325Z,17.90
2023-05-04T22:10:18.152Z,17.90
2023-05-04T22:12:45.741Z,17.90
2023-05-04T22:15:12.817Z,17.90
2023-05-04T22:17:39.696Z,17.80
2023-05-04T22:20:07.628Z,17.90
2023-05-04T22:22:35.744Z,17.90
2023-05-04T22:25:02.612Z,17.90
2023-05-04T22:27:29.392Z,17.90
2023-05-04T22:29:56.244Z,17.90
2023-05-04T22:32:23.135Z,17.90
2023-05-04T22:34:49.977Z,17.90
2023-05-04T22:37:16.796Z,17.90
2023-05-04T22:39:43.566Z,17.90
2023-05-04T22:42:10.373Z,17.90
2023-05-04T22:44:37.201Z,17.90
2023-05-04T22:47:04.261Z,17.90
2023-05-04T22:49:31.094Z,17.90
2023-05-04T22:51:57.941Z,17.90
2023-05-04T22:54:24.658Z,17.90
2023-05-04T22:56:51.769Z,17.90
2023-05-04T22:59:18.463Z,17.90
2023-05-04T23:01:45.373Z,17.90
2023-05-04T23:04:12.234Z,17.90
2023-05-04T23:06:39.085Z,17.90
2023-05-04T23:09:05.828Z,17.90
2023-05-04T23:11:33.380Z,17.90
2023-05-04T23:14:00.138Z,17.90
2023-05-04T23:16:27.014Z,17.90
2023-05-04T23:18:53.805Z,17.80
2023-05-04T23:21:20.899Z,17.80
2023-05-04T23:23:49.720Z,17.80
2023-05-04T23:26:16.716Z,17.80
2023-05-04T23:28:43.544Z,17.80
2023-05-04T23:31:11.398Z,17.90
2023-05-04T23:33:38.268Z,17.90
2023-05-04T23:36:05.203Z,18.00
2023-05-04T23:38:32.028Z,18.00
2023-05-04T23:40:58.920Z,18.10
2023-05-04T23:43:25.640Z,18.10
2023-05-04T23:46:00.590Z,18.10
2023-05-04T23:48:28.256Z,18.20
2023-05-04T23:50:58.330Z,18.20
2023-05-04T23:53:26.154Z,18.20
2023-05-04T23:56:04.334Z,18.20
2023-05-04T23:58:37.162Z,18.30
